Time;durP1;ratioP1;P1;durP2;ratioP2;P2;SDS_P1;SDS_P2;PMS_P1;PMS_P2;Temp;Humidity;BMP_temperature;BMP_pressure;BME280_temperature;BME280_humidity;BME280_pressure;Samples;Min_cycle;Max_cycle;Signal;HPM_P1;HPM_P2
2022/09/02 00:00:32;;;;;;;2.40;0.65;;;11.20;59.90;;;;;;4133441;28;20455;-85
2022/09/02 00:02:33;;;;;;;0.88;0.50;;;11.20;60.00;;;;;;4134781;28;20492;-86
2022/09/02 00:04:34;;;;;;;2.60;0.73;;;11.20;60.10;;;;;;4133755;28;20038;-86
2022/09/02 00:06:35;;;;;;;0.60;0.43;;;11.20;60.20;;;;;;4131015;28;20076;-86
2022/09/02 00:08:37;;;;;;;1.48;0.70;;;11.10;60.30;;;;;;4137864;28;20045;-85
2022/09/02 00:10:41;;;;;;;1.60;0.70;;;11.10;60.30;;;;;;4139153;28;20027;-86
2022/09/02 00:12:42;;;;;;;0.80;0.50;;;11.10;60.50;;;;;;4134355;28;20052;-86
2022/09/02 00:14:42;;;;;;;0.80;0.50;;;11.10;60.60;;;;;;4138529;28;20093;-84
2022/09/02 00:16:50;;;;;;;2.63;0.70;;;11.10;60.60;;;;;;4133907;28;20026;-85
2022/09/02 00:18:52;;;;;;;2.10;0.65;;;11.10;60.70;;;;;;4136397;28;20037;-85
2022/09/02 00:20:53;;;;;;;1.10;0.70;;;11.10;60.70;;;;;;4132597;28;20038;-84
2022/09/02 00:22:54;;;;;;;1.45;0.60;;;11.00;60.60;;;;;;4131852;28;20033;-84
2022/09/02 00:24:54;;;;;;;4.43;0.80;;;11.00;60.80;;;;;;4133338;28;20030;-83
2022/09/02 00:26:55;;;;;;;1.52;0.77;;;11.00;61.10;;;;;;4135216;28;20084;-84
2022/09/02 00:28:56;;;;;;;1.27;0.63;;;11.00;61.30;;;;;;4136474;28;20118;-85
2022/09/02 00:30:57;;;;;;;0.88;0.75;;;11.00;61.70;;;;;;4131382;28;20030;-84
2022/09/02 00:33:00;;;;;;;1.05;0.57;;;11.00;61.60;;;;;;4130833;28;20147;-84
2022/09/02 00:35:01;;;;;;;1.17;0.75;;;10.90;61.70;;;;;;4125698;28;20034;-85
2022/09/02 00:37:02;;;;;;;2.00;0.65;;;10.90;61.70;;;;;;4131544;28;20080;-84
2022/09/02 00:39:06;;;;;;;1.95;1.00;;;10.90;61.80;;;;;;4132777;28;20053;-85
2022/09/02 00:41:09;;;;;;;1.10;0.70;;;10.90;61.80;;;;;;4131503;28;20038;-85
2022/09/02 00:43:10;;;;;;;1.80;0.80;;;10.90;61.90;;;;;;4132405;28;20095;-84
2022/09/02 00:45:11;;;;;;;0.82;0.50;;;10.90;62.00;;;;;;4136859;28;20045;-83
2022/09/02 00:47:14;;;;;;;1.33;0.65;;;10.90;62.00;;;;;;4134810;28;20034;-84
2022/09/02 00:49:27;;;;;;;1.40;0.65;;;10.80;62.80;;;;;;4133438;28;20414;-84
2022/09/02 00:51:35;;;;;;;1.40;0.80;;;10.80;62.20;;;;;;4128538;28;20018;-84
2022/09/02 00:53:39;;;;;;;1.25;0.60;;;10.80;62.00;;;;;;4127918;28;20517;-84
2022/09/02 00:55:45;;;;;;;0.75;0.50;;;10.80;62.00;;;;;;4115043;28;20026;-85
2022/09/02 00:57:55;;;;;;;4.18;0.73;;;10.80;62.10;;;;;;4132109;28;20018;-84
2022/09/02 01:00:10;;;;;;;1.10;0.65;;;10.80;62.10;;;;;;4116863;28;20081;-84
2022/09/02 01:02:12;;;;;;;0.90;0.60;;;10.80;62.20;;;;;;4115203;28;20426;-84
2022/09/02 01:04:13;;;;;;;1.83;0.50;;;10.70;62.10;;;;;;4124075;28;20034;-84
2022/09/02 01:06:17;;;;;;;1.42;0.80;;;10.70;62.10;;;;;;4133040;28;20049;-84
2022/09/02 01:08:23;;;;;;;2.35;0.63;;;10.60;62.10;;;;;;4131406;28;20038;-85
2022/09/02 01:10:33;;;;;;;1.48;0.65;;;10.70;62.20;;;;;;4128556;28;20037;-85
2022/09/02 01:12:34;;;;;;;2.35;0.80;;;10.70;62.30;;;;;;4130850;28;20030;-84
2022/09/02 01:14:35;;;;;;;1.08;0.70;;;10.70;62.20;;;;;;4130242;28;20022;-85
2022/09/02 01:16:41;;;;;;;1.10;0.57;;;10.60;62.10;;;;;;4133622;28;20044;-84
2022/09/02 01:18:48;;;;;;;1.15;0.68;;;10.60;62.10;;;;;;4128319;28;20037;-84
2022/09/02 01:20:49;;;;;;;4.38;0.65;;;10.60;62.10;;;;;;4131832;28;20061;-84
2022/09/02 01:22:50;;;;;;;2.00;0.68;;;10.60;62.10;;;;;;4117297;28;20034;-85
2022/09/02 01:24:55;;;;;;;0.93;0.60;;;10.60;62.20;;;;;;4129602;28;20205;-84
2022/09/02 01:26:57;;;;;;;0.82;0.50;;;10.50;62.20;;;;;;4126819;28;20033;-85
2022/09/02 01:28:58;;;;;;;1.17;0.70;;;10.50;62.90;;;;;;4144320;28;20025;-85
2022/09/02 01:30:59;;;;;;;0.95;0.50;;;10.50;62.20;;;;;;4134679;28;20036;-85
2022/09/02 01:33:00;;;;;;;2.33;0.52;;;10.50;62.10;;;;;;4135192;28;20465;-85
2022/09/02 01:35:01;;;;;;;1.00;0.52;;;10.50;62.10;;;;;;4131268;28;20042;-85
2022/09/02 01:37:02;;;;;;;0.85;0.57;;;10.50;62.10;;;;;;4130598;28;20247;-84
2022/09/02 01:39:02;;;;;;;1.65;0.70;;;10.40;62.10;;;;;;4128360;28;20026;-85
2022/09/02 01:41:03;;;;;;;0.75;0.50;;;10.40;62.00;;;;;;4132731;28;20046;-85
2022/09/02 01:43:10;;;;;;;1.20;0.50;;;10.40;62.10;;;;;;4127555;28;20115;-84
2022/09/02 01:45:12;;;;;;;2.90;0.50;;;10.40;62.20;;;;;;4128679;28;20023;-84
2022/09/02 01:47:15;;;;;;;0.75;0.45;;;10.40;62.20;;;;;;4128075;28;20029;-85
2022/09/02 01:49:16;;;;;;;0.95;0.63;;;10.30;62.20;;;;;;4127934;28;20051;-85
2022/09/02 01:51:19;;;;;;;0.77;0.50;;;10.30;62.20;;;;;;4126128;28;20026;-86
2022/09/02 01:53:20;;;;;;;1.55;0.50;;;10.30;62.20;;;;;;4127440;28;20022;-85
2022/09/02 01:55:21;;;;;;;0.60;0.45;;;10.30;62.30;;;;;;4124851;28;20039;-84
2022/09/02 01:57:23;;;;;;;3.20;0.68;;;10.30;62.40;;;;;;4123917;28;20039;-86
2022/09/02 01:59:24;;;;;;;3.72;0.60;;;10.20;62.40;;;;;;4121027;28;20089;-86
2022/09/02 02:01:25;;;;;;;1.60;0.60;;;10.20;62.40;;;;;;4132693;28;20042;-84
2022/09/02 02:03:25;;;;;;;2.55;0.40;;;10.10;62.30;;;;;;4129671;28;20022;-85
2022/09/02 02:05:26;;;;;;;4.28;0.57;;;10.10;62.40;;;;;;4127552;28;20130;-84
2022/09/02 02:07:27;;;;;;;0.80;0.47;;;10.10;62.50;;;;;;4131271;28;20649;-84
2022/09/02 02:09:28;;;;;;;2.15;0.50;;;10.10;62.50;;;;;;4136629;28;20154;-85
2022/09/02 02:11:28;;;;;;;1.15;0.50;;;10.10;62.60;;;;;;4129469;28;20038;-84
2022/09/02 02:13:29;;;;;;;1.52;0.63;;;10.10;62.60;;;;;;4133569;28;20057;-85
2022/09/02 02:15:30;;;;;;;1.38;0.50;;;10.00;62.60;;;;;;4129994;28;20045;-85
2022/09/02 02:17:31;;;;;;;1.23;0.52;;;10.00;62.60;;;;;;4135252;28;20085;-84
2022/09/02 02:19:33;;;;;;;0.85;0.50;;;10.00;62.70;;;;;;4120437;28;20038;-84
2022/09/02 02:21:33;;;;;;;0.95;0.55;;;10.00;62.80;;;;;;4127325;28;20113;-85
2022/09/02 02:23:35;;;;;;;3.47;0.50;;;10.00;62.80;;;;;;4137656;28;20140;-85
2022/09/02 02:25:36;;;;;;;3.00;0.50;;;9.90;62.70;;;;;;4134422;28;20034;-84
2022/09/02 02:27:37;;;;;;;0.50;0.40;;;9.90;62.80;;;;;;4129878;28;20072;-84
2022/09/02 02:29:37;;;;;;;1.73;0.45;;;10.00;63.00;;;;;;4132911;28;20524;-85
2022/09/02 02:31:39;;;;;;;1.73;0.63;;;9.80;62.80;;;;;;4131625;28;20033;-84
2022/09/02 02:33:39;;;;;;;0.73;0.50;;;9.80;62.80;;;;;;4125144;28;20034;-84
2022/09/02 02:35:41;;;;;;;1.00;0.45;;;9.80;62.80;;;;;;4131112;28;20703;-85
2022/09/02 02:37:42;;;;;;;1.58;0.55;;;9.80;63.00;;;;;;4132020;28;20041;-85
2022/09/02 02:39:43;;;;;;;0.52;0.35;;;9.80;63.00;;;;;;4131010;28;20450;-84
2022/09/02 02:41:45;;;;;;;3.17;0.60;;;9.80;63.10;;;;;;4134480;28;20123;-84
2022/09/02 02:43:46;;;;;;;1.23;0.60;;;9.70;63.10;;;;;;4128335;28;20085;-84
2022/09/02 02:45:47;;;;;;;1.42;0.50;;;9.70;63.10;;;;;;4131954;28;20038;-83
2022/09/02 02:47:49;;;;;;;1.17;0.52;;;9.70;63.20;;;;;;4136265;28;20029;-84
2022/09/02 02:49:50;;;;;;;1.10;0.57;;;9.70;63.10;;;;;;4145712;28;20026;-85
2022/09/02 02:51:51;;;;;;;1.02;0.50;;;9.70;63.10;;;;;;4134973;28;20884;-84
2022/09/02 02:53:51;;;;;;;1.15;0.57;;;9.60;63.10;;;;;;4135981;28;20022;-84
2022/09/02 02:55:52;;;;;;;0.88;0.40;;;9.60;63.10;;;;;;4128801;28;20996;-84
2022/09/02 02:57:53;;;;;;;0.88;0.40;;;9.60;63.20;;;;;;4131757;28;22300;-85
2022/09/02 02:59:54;;;;;;;1.63;0.50;;;9.60;63.30;;;;;;4131687;28;20402;-85
2022/09/02 03:01:54;;;;;;;0.47;0.32;;;9.60;64.10;;;;;;4132714;28;20153;-85
2022/09/02 03:03:56;;;;;;;4.93;0.60;;;9.60;63.50;;;;;;4129741;28;21958;-84
2022/09/02 03:05:57;;;;;;;0.45;0.25;;;9.50;63.60;;;;;;4134047;28;20034;-84
2022/09/02 03:07:58;;;;;;;1.27;0.55;;;9.50;63.60;;;;;;4131404;28;20312;-84
2022/09/02 03:09:58;;;;;;;1.67;0.63;;;9.50;63.60;;;;;;4132845;28;20030;-84
2022/09/02 03:12:00;;;;;;;1.52;0.40;;;9.50;63.70;;;;;;4151404;28;20034;-84
2022/09/02 03:14:00;;;;;;;1.20;0.57;;;9.50;63.90;;;;;;4134765;28;20026;-85
2022/09/02 03:16:04;;;;;;;0.73;0.50;;;9.40;63.80;;;;;;4133575;28;20135;-85
2022/09/02 03:18:06;;;;;;;0.90;0.60;;;9.40;63.90;;;;;;4129213;28;20030;-86
2022/09/02 03:20:07;;;;;;;1.00;0.43;;;9.40;63.90;;;;;;4132440;28;20042;-87
2022/09/02 03:22:09;;;;;;;2.70;0.50;;;9.40;64.00;;;;;;4118849;28;20038;-86
2022/09/02 03:24:11;;;;;;;0.68;0.40;;;9.40;64.00;;;;;;4130689;28;20030;-87
2022/09/02 03:26:15;;;;;;;0.57;0.40;;;9.30;64.00;;;;;;4130606;28;20061;-85
2022/09/02 03:28:16;;;;;;;1.00;0.40;;;9.30;64.10;;;;;;4134961;28;20026;-85
2022/09/02 03:30:21;;;;;;;0.70;0.47;;;9.30;64.10;;;;;;4133135;28;20606;-86
2022/09/02 03:32:21;;;;;;;2.35;0.55;;;9.30;64.10;;;;;;4131121;28;20061;-85
2022/09/02 03:34:22;;;;;;;1.83;0.60;;;9.30;64.20;;;;;;4117905;28;20018;-85
2022/09/02 03:36:27;;;;;;;0.90;0.43;;;9.30;64.30;;;;;;4126755;28;20339;-85
2022/09/02 03:38:27;;;;;;;0.75;0.40;;;9.30;64.40;;;;;;4132716;28;20034;-86
2022/09/02 03:40:29;;;;;;;0.38;0.32;;;9.20;64.20;;;;;;4132207;28;20061;-86
2022/09/02 03:42:29;;;;;;;1.00;0.45;;;9.20;64.40;;;;;;4130842;28;20116;-84
2022/09/02 03:44:32;;;;;;;0.75;0.30;;;9.20;64.40;;;;;;4133073;28;20506;-85
2022/09/02 03:46:34;;;;;;;1.30;0.45;;;9.10;64.30;;;;;;4132397;28;20034;-84
2022/09/02 03:48:35;;;;;;;0.63;0.50;;;9.10;64.30;;;;;;4133982;28;20052;-84
2022/09/02 03:50:38;;;;;;;1.42;0.60;;;9.10;64.40;;;;;;4134717;28;20171;-85
2022/09/02 03:52:39;;;;;;;0.60;0.40;;;9.10;64.60;;;;;;4137102;28;20089;-85
2022/09/02 03:54:40;;;;;;;2.40;0.30;;;9.10;64.60;;;;;;4123693;28;20034;-85
2022/09/02 03:56:40;;;;;;;1.10;0.57;;;9.00;64.60;;;;;;4125033;28;20057;-85
2022/09/02 03:58:44;;;;;;;0.47;0.30;;;9.00;64.60;;;;;;4136528;28;20546;-85
2022/09/02 04:00:50;;;;;;;1.42;0.50;;;9.00;65.40;;;;;;4133125;28;21567;-84
2022/09/02 04:02:54;;;;;;;1.63;0.60;;;9.00;64.80;;;;;;4129860;28;20034;-85
2022/09/02 04:04:54;;;;;;;;;;;9.00;64.80;;;;;;4136042;28;20032;-85
2022/09/02 04:06:56;;;;;;;0.45;0.30;;;9.00;66.40;;;;;;4125819;28;19914;-85
2022/09/02 04:08:56;;;;;;;0.98;0.40;;;9.00;64.60;;;;;;4128069;28;20611;-84
2022/09/02 04:10:57;;;;;;;0.45;0.30;;;8.90;64.70;;;;;;4132676;28;20030;-83
2022/09/02 04:13:18;;;;;;;1.17;0.40;;;8.90;64.80;;;;;;4128349;28;20037;-83
2022/09/02 04:15:43;;;;;;;0.88;0.55;;;8.90;64.90;;;;;;4127833;28;20092;-82
2022/09/02 04:18:03;;;;;;;1.73;0.50;;;8.90;64.90;;;;;;4131566;28;20053;-82
2022/09/02 04:20:24;;;;;;;1.25;0.40;;;8.80;64.80;;;;;;4132104;28;20036;-82
2022/09/02 04:22:45;;;;;;;0.82;0.50;;;8.80;64.80;;;;;;4131915;28;20034;-83
2022/09/02 04:25:08;;;;;;;1.17;0.50;;;8.80;65.70;;;;;;4129727;28;20048;-85
2022/09/02 04:27:29;;;;;;;1.50;0.50;;;8.80;65.00;;;;;;4127042;28;20037;-81
2022/09/02 04:29:50;;;;;;;1.00;0.40;;;8.80;65.00;;;;;;4129382;28;20793;-83
2022/09/02 04:32:10;;;;;;;0.55;0.32;;;8.80;65.00;;;;;;4133790;28;20034;-83
2022/09/02 04:34:31;;;;;;;0.95;0.63;;;8.80;65.10;;;;;;4131391;28;20030;-83
2022/09/02 04:36:52;;;;;;;4.72;0.50;;;8.80;65.10;;;;;;4128346;28;20040;-82
2022/09/02 04:39:13;;;;;;;2.95;0.82;;;8.70;65.10;;;;;;4130382;28;20031;-82
2022/09/02 04:41:34;;;;;;;1.67;0.90;;;8.70;65.10;;;;;;4133349;28;20066;-81
2022/09/02 04:43:57;;;;;;;0.82;0.45;;;8.80;65.20;;;;;;4128783;28;20040;-82
2022/09/02 04:46:18;;;;;;;1.17;0.57;;;8.70;65.20;;;;;;4130026;28;20048;-81
2022/09/02 04:48:39;;;;;;;1.20;0.50;;;8.70;65.20;;;;;;4134256;28;20026;-81
2022/09/02 04:51:09;;;;;;;1.00;0.68;;;8.70;65.30;;;;;;4125105;28;20089;-81
2022/09/02 04:53:30;;;;;;;2.17;0.80;;;8.70;65.50;;;;;;4128118;28;20037;-83
2022/09/02 04:55:50;;;;;;;1.95;0.55;;;8.80;65.50;;;;;;4134847;28;20100;-82
2022/09/02 04:58:11;;;;;;;1.15;0.70;;;8.70;65.40;;;;;;4126758;28;20036;-81
2022/09/02 05:00:32;;;;;;;2.58;0.70;;;8.60;65.40;;;;;;4127595;28;20037;-81
2022/09/02 05:02:53;;;;;;;2.05;0.50;;;8.70;65.60;;;;;;4127644;28;20034;-82
2022/09/02 05:04:54;;;;;;;1.95;0.50;;;8.70;65.80;;;;;;4130060;28;20117;-81
2022/09/02 05:06:56;;;;;;;2.10;0.90;;;8.70;65.90;;;;;;4120564;28;20268;-84
2022/09/02 05:08:59;;;;;;;1.00;0.57;;;8.70;66.10;;;;;;4126907;28;20483;-81
2022/09/02 05:11:01;;;;;;;1.50;0.80;;;8.70;66.20;;;;;;4128130;28;20281;-81
2022/09/02 05:13:02;;;;;;;3.70;0.60;;;8.70;66.50;;;;;;4124483;28;20045;-82
2022/09/02 05:15:03;;;;;;;3.65;0.70;;;8.70;66.70;;;;;;4134673;28;20030;-83
2022/09/02 05:17:04;;;;;;;3.42;1.05;;;8.70;67.00;;;;;;4131521;28;20073;-81
2022/09/02 05:19:08;;;;;;;1.67;0.95;;;8.70;67.20;;;;;;4141190;28;20648;-82
2022/09/02 05:21:09;;;;;;;4.10;0.80;;;8.80;67.50;;;;;;4131752;28;20150;-82
2022/09/02 05:23:12;;;;;;;3.72;0.80;;;8.80;67.70;;;;;;4133797;28;20049;-82
2022/09/02 05:25:12;;;;;;;0.83;0.60;;;8.80;67.90;;;;;;4123973;28;20030;-82
2022/09/02 05:27:15;;;;;;;4.05;0.80;;;8.90;68.10;;;;;;4126396;28;20561;-83
2022/09/02 05:29:19;;;;;;;2.17;0.75;;;8.90;68.30;;;;;;4133939;28;20111;-82
2022/09/02 05:31:20;;;;;;;2.80;0.82;;;9.00;69.30;;;;;;4135061;28;20049;-83
2022/09/02 05:33:21;;;;;;;1.42;0.88;;;9.00;68.70;;;;;;4119429;28;20427;-82
2022/09/02 05:35:22;;;;;;;4.47;0.85;;;9.10;69.10;;;;;;4137326;28;20029;-83
2022/09/02 05:37:23;;;;;;;2.22;1.25;;;9.20;69.40;;;;;;4135184;28;20520;-82
2022/09/02 05:39:24;;;;;;;2.75;1.10;;;9.30;69.80;;;;;;4137247;28;20038;-82
2022/09/02 05:41:26;;;;;;;10.13;1.25;;;9.30;70.20;;;;;;4136586;28;20034;-82
2022/09/02 05:43:26;;;;;;;2.22;1.02;;;9.40;70.70;;;;;;4133223;28;20033;-83
2022/09/02 05:45:27;;;;;;;6.18;1.20;;;9.50;71.00;;;;;;4137823;28;20034;-82
2022/09/02 05:47:28;;;;;;;3.00;1.30;;;9.60;71.30;;;;;;4133193;28;20027;-82
2022/09/02 05:49:30;;;;;;;5.28;1.30;;;9.70;71.60;;;;;;4130327;28;20628;-82
2022/09/02 05:51:33;;;;;;;4.68;1.25;;;9.80;71.80;;;;;;4129489;28;20413;-82
2022/09/02 05:53:34;;;;;;;6.75;1.00;;;9.90;72.00;;;;;;4136514;28;20101;-82
2022/09/02 05:55:34;;;;;;;5.20;1.00;;;10.00;72.10;;;;;;4133838;28;20148;-83
2022/09/02 05:57:35;;;;;;;6.28;0.93;;;10.10;72.40;;;;;;4119719;28;20298;-83
2022/09/02 05:59:41;;;;;;;10.15;0.85;;;10.20;72.80;;;;;;4133377;28;20034;-82
2022/09/02 06:01:42;;;;;;;3.63;0.80;;;10.30;73.00;;;;;;4135989;28;20033;-83
2022/09/02 06:03:42;;;;;;;1.63;0.82;;;10.50;73.00;;;;;;4131252;28;20353;-82
2022/09/02 06:05:56;;;;;;;1.58;0.80;;;10.60;72.70;;;;;;4131600;28;20034;-83
2022/09/02 06:07:57;;;;;;;1.55;1.00;;;10.70;72.60;;;;;;4133429;28;20041;-83
2022/09/02 06:09:57;;;;;;;4.88;1.08;;;10.80;72.10;;;;;;4137467;28;20382;-83
2022/09/02 06:11:59;;;;;;;2.70;0.90;;;10.90;72.00;;;;;;4135711;28;20052;-82
2022/09/02 06:14:00;;;;;;;3.10;0.82;;;11.00;72.80;;;;;;4134008;28;20069;-84
2022/09/02 06:16:01;;;;;;;7.43;0.90;;;11.10;72.00;;;;;;4134475;28;20437;-82
2022/09/02 06:18:02;;;;;;;1.92;0.90;;;11.20;71.90;;;;;;4120757;28;21766;-83
2022/09/02 06:20:03;;;;;;;2.65;0.90;;;11.30;71.90;;;;;;4135342;28;20130;-82
2022/09/02 06:22:04;;;;;;;1.90;0.70;;;11.40;72.10;;;;;;4134793;28;20036;-83
2022/09/02 06:24:07;;;;;;;3.88;1.05;;;11.50;72.20;;;;;;4135301;28;20125;-82
2022/09/02 06:26:09;;;;;;;;;;;11.60;72.40;;;;;;4133826;28;20053;-84
2022/09/02 06:28:10;;;;;;;1.10;0.63;;;11.80;73.30;;;;;;4135029;28;19913;-83
2022/09/02 06:30:11;;;;;;;5.57;1.02;;;11.90;72.40;;;;;;4137632;28;20185;-82
2022/09/02 06:32:12;;;;;;;4.72;0.90;;;12.00;73.00;;;;;;4138095;28;20101;-83
2022/09/02 06:34:15;;;;;;;3.45;1.30;;;12.10;73.00;;;;;;4135858;28;20096;-82
2022/09/02 06:36:17;;;;;;;2.05;0.70;;;12.20;73.10;;;;;;4133935;28;20042;-83
2022/09/02 06:38:19;;;;;;;5.68;0.80;;;12.30;73.30;;;;;;4135509;28;20034;-84
2022/09/02 06:40:19;;;;;;;1.70;0.85;;;12.40;73.10;;;;;;4137994;28;20038;-83
2022/09/02 06:42:20;;;;;;;3.22;0.70;;;12.60;73.10;;;;;;4135984;28;20033;-85
2022/09/02 06:44:21;;;;;;;2.17;1.02;;;12.70;73.10;;;;;;4140853;28;20026;-84
2022/09/02 06:46:25;;;;;;;2.17;0.93;;;12.80;73.10;;;;;;4137963;28;20045;-84
2022/09/02 06:48:26;;;;;;;4.18;1.00;;;12.90;72.90;;;;;;4143165;28;20158;-84
2022/09/02 06:50:27;;;;;;;2.88;0.80;;;13.00;72.70;;;;;;4137877;28;20490;-83
2022/09/02 06:52:27;;;;;;;1.42;0.90;;;13.20;73.10;;;;;;4142284;28;20029;-82
2022/09/02 06:54:28;;;;;;;1.08;0.50;;;13.30;72.80;;;;;;4139208;28;20049;-83
2022/09/02 06:56:29;;;;;;;0.75;0.55;;;13.40;72.40;;;;;;4140829;28;20042;-83
2022/09/02 06:58:29;;;;;;;0.77;0.47;;;13.60;72.10;;;;;;4139974;28;20104;-82
2022/09/02 07:00:30;;;;;;;1.33;0.68;;;13.70;71.60;;;;;;4141022;28;20038;-84
2022/09/02 07:02:31;;;;;;;2.42;0.63;;;13.80;71.20;;;;;;4135978;28;20387;-83
2022/09/02 07:06:53;;;;;;;3.03;0.70;;;14.10;70.60;;;;;;4136307;28;21682;-83
2022/09/02 07:08:54;;;;;;;1.98;0.68;;;14.20;70.20;;;;;;4138381;28;20096;-82
2022/09/02 07:10:55;;;;;;;2.28;0.50;;;14.30;69.80;;;;;;4138649;28;20034;-84
2022/09/02 07:12:55;;;;;;;2.88;0.60;;;14.50;69.20;;;;;;4140797;28;20033;-83
2022/09/02 07:14:56;;;;;;;2.13;0.50;;;14.60;68.70;;;;;;4140646;28;20044;-83
2022/09/02 07:16:58;;;;;;;0.65;0.40;;;14.70;68.10;;;;;;4138546;28;20096;-84
2022/09/02 07:19:00;;;;;;;6.20;0.68;;;14.80;67.40;;;;;;4139164;28;20124;-84
2022/09/02 07:21:01;;;;;;;1.27;0.55;;;15.00;66.70;;;;;;4139197;28;20279;-83
2022/09/02 07:23:01;;;;;;;0.73;0.40;;;15.10;66.10;;;;;;4137988;28;20486;-84
2022/09/02 07:25:03;;;;;;;1.10;0.52;;;15.20;65.30;;;;;;4136959;28;20040;-83
2022/09/02 07:27:04;;;;;;;0.80;0.40;;;15.30;64.60;;;;;;4137155;28;20034;-84
2022/09/02 07:29:07;;;;;;;6.75;0.80;;;15.50;64.20;;;;;;4136790;28;20112;-84
2022/09/02 07:31:10;;;;;;;1.40;0.40;;;15.60;63.80;;;;;;4136345;28;20390;-83
2022/09/02 07:33:12;;;;;;;0.60;0.40;;;15.70;63.30;;;;;;4136180;28;20030;-83
2022/09/02 07:35:13;;;;;;;0.93;0.57;;;15.80;62.50;;;;;;4136559;28;20106;-83
2022/09/02 07:37:13;;;;;;;1.40;0.47;;;15.90;62.00;;;;;;4137259;28;20084;-83
2022/09/02 07:39:16;;;;;;;1.50;0.45;;;16.10;61.70;;;;;;4136855;28;20034;-84
2022/09/02 07:41:18;;;;;;;1.10;0.52;;;16.10;60.60;;;;;;4136728;28;20030;-83
2022/09/02 07:43:18;;;;;;;1.70;0.50;;;16.20;59.80;;;;;;4141173;28;20453;-84
2022/09/02 07:45:19;;;;;;;3.90;0.65;;;16.30;58.80;;;;;;4133925;28;20037;-84
2022/09/02 07:47:20;;;;;;;3.58;0.52;;;16.40;59.20;;;;;;4134032;28;20394;-84
2022/09/02 07:49:21;;;;;;;0.80;0.40;;;16.50;59.00;;;;;;4137239;28;20093;-84
2022/09/02 07:51:22;;;;;;;0.85;0.47;;;16.60;58.90;;;;;;4140396;28;20057;-84
2022/09/02 07:53:23;;;;;;;1.20;0.60;;;16.70;58.40;;;;;;4140494;28;20034;-83
2022/09/02 07:55:25;;;;;;;1.25;0.40;;;16.80;57.40;;;;;;4136583;28;20022;-83
2022/09/02 07:57:45;;;;;;;0.90;0.30;;;16.90;57.60;;;;;;4138577;28;20104;-83
2022/09/02 08:00:07;;;;;;;0.70;0.50;;;17.00;57.60;;;;;;4141074;28;20125;-84
2022/09/02 08:02:27;;;;;;;1.63;0.57;;;17.10;57.20;;;;;;4138175;28;20037;-83
2022/09/02 08:04:48;;;;;;;0.70;0.40;;;17.30;57.20;;;;;;4136295;28;20660;-83
2022/09/02 08:07:10;;;;;;;1.27;0.50;;;17.40;56.60;;;;;;4133891;28;20033;-83
2022/09/02 08:09:31;;;;;;;2.40;0.50;;;17.50;56.50;;;;;;4141217;28;20038;-83
2022/09/02 08:11:52;;;;;;;1.48;0.40;;;17.60;56.30;;;;;;4138985;28;20057;-83
2022/09/02 08:14:20;;;;;;;2.03;0.60;;;17.60;56.00;;;;;;4141379;28;20033;-81
2022/09/02 08:16:41;;;;;;;1.50;0.55;;;17.80;55.40;;;;;;4136097;28;20034;-82
2022/09/02 08:19:02;;;;;;;0.80;0.40;;;17.90;55.20;;;;;;4134293;28;20038;-83
2022/09/02 08:21:24;;;;;;;2.30;0.75;;;17.90;54.80;;;;;;4136773;28;20090;-83
2022/09/02 08:23:25;;;;;;;2.30;0.60;;;18.10;54.10;;;;;;4130808;28;20018;-82
2022/09/02 08:25:26;;;;;;;1.83;0.50;;;18.10;53.10;;;;;;4133550;28;20518;-84
2022/09/02 08:27:26;;;;;;;2.45;0.63;;;18.20;52.00;;;;;;4138129;28;20650;-83
2022/09/02 08:29:27;;;;;;;1.05;0.60;;;18.20;51.80;;;;;;4141676;28;20056;-83
2022/09/02 08:31:28;;;;;;;0.85;0.45;;;18.30;51.80;;;;;;4139550;28;20037;-84
2022/09/02 08:33:28;;;;;;;0.93;0.40;;;18.30;52.30;;;;;;4144333;28;20045;-83
2022/09/02 08:35:29;;;;;;;0.63;0.40;;;18.40;52.10;;;;;;4140552;28;20033;-82
2022/09/02 08:37:31;;;;;;;0.60;0.50;;;18.40;51.20;;;;;;4127263;28;20139;-83
2022/09/02 08:39:32;;;;;;;1.40;0.40;;;18.50;51.00;;;;;;4144299;28;20034;-82
2022/09/02 08:41:42;;;;;;;6.50;0.65;;;18.60;51.10;;;;;;4134330;28;20816;-84
2022/09/02 08:43:44;;;;;;;1.13;0.40;;;18.60;48.10;;;;;;4134281;28;20796;-84
2022/09/02 08:45:46;;;;;;;1.65;0.63;;;18.60;48.60;;;;;;4136369;28;20032;-84
2022/09/02 08:47:57;;;;;;;1.10;0.50;;;18.70;47.60;;;;;;4143149;28;20037;-83
2022/09/02 08:50:13;;;;;;;0.63;0.30;;;18.80;47.90;;;;;;4150606;28;20425;-84
2022/09/02 08:52:21;;;;;;;1.65;0.35;;;18.80;46.30;;;;;;4150195;28;20485;-83
2022/09/02 08:54:30;;;;;;;0.50;0.40;;;18.90;47.30;;;;;;4153957;28;20762;-84
2022/09/02 08:56:31;;;;;;;1.30;0.52;;;19.00;46.20;;;;;;4149426;28;20063;-84
2022/09/02 08:58:38;;;;;;;16.42;9.27;;;19.10;46.90;;;;;;4143404;28;20045;-84
2022/09/02 09:00:42;;;;;;;3.22;1.10;;;19.20;46.40;;;;;;4142208;28;20037;-84
2022/09/02 09:03:05;;;;;;;0.75;0.38;;;19.20;46.20;;;;;;4140717;28;20026;-84
2022/09/02 09:05:13;;;;;;;1.02;0.50;;;19.40;43.20;;;;;;4138147;28;20068;-83
2022/09/02 09:07:38;;;;;;;0.47;0.40;;;19.40;44.60;;;;;;4130872;28;20045;-85
2022/09/02 09:09:58;;;;;;;2.38;0.73;;;19.50;44.70;;;;;;4139837;28;20030;-85
2022/09/02 09:12:20;;;;;;;0.63;0.38;;;19.60;44.20;;;;;;4139831;28;20159;-84
2022/09/02 09:14:30;;;;;;;0.93;0.40;;;19.60;43.20;;;;;;4137880;28;20535;-84
2022/09/02 09:16:38;;;;;;;0.70;0.40;;;19.60;44.30;;;;;;4136291;28;20085;-85
2022/09/02 09:19:02;;;;;;;0.60;0.50;;;19.70;44.40;;;;;;4132300;28;20349;-85
2022/09/02 09:21:03;;;;;;;0.98;0.50;;;19.70;45.10;;;;;;4129297;28;20030;-84
2022/09/02 09:23:32;;;;;;;0.20;0.20;;;19.80;45.50;;;;;;4123951;28;20088;-85
2022/09/02 09:25:33;;;;;;;0.38;0.30;;;19.80;44.30;;;;;;4156651;28;20104;-83
2022/09/02 09:27:34;;;;;;;0.45;0.30;;;19.80;44.40;;;;;;4131318;28;20061;-85
2022/09/02 09:29:35;;;;;;;3.22;0.40;;;19.90;44.60;;;;;;4129918;28;20137;-84
2022/09/02 09:31:37;;;;;;;0.75;0.47;;;19.90;44.70;;;;;;4136367;28;20057;-84
2022/09/02 09:33:38;;;;;;;1.83;0.47;;;19.90;44.90;;;;;;4132902;28;20172;-85
2022/09/02 09:35:50;;;;;;;1.70;0.40;;;19.90;45.10;;;;;;4137187;28;20548;-85
2022/09/02 09:37:55;;;;;;;0.68;0.40;;;20.00;43.50;;;;;;4125591;28;20120;-85
2022/09/02 09:39:58;;;;;;;0.70;0.38;;;20.00;43.60;;;;;;4136250;28;20139;-85
2022/09/02 09:42:02;;;;;;;0.98;0.50;;;20.00;44.00;;;;;;4130788;28;20041;-84
2022/09/02 09:44:02;;;;;;;;;;;20.00;44.10;;;;;;4134102;28;20030;-85
2022/09/02 09:46:31;;;;;;;1.27;0.30;;;20.10;42.00;;;;;;4121263;28;19924;-84
2022/09/02 09:48:32;;;;;;;1.42;0.30;;;20.20;41.90;;;;;;4131924;28;20490;-83
2022/09/02 09:50:33;;;;;;;0.30;0.30;;;20.20;41.60;;;;;;4134215;28;20030;-84
2022/09/02 09:52:34;;;;;;;0.75;0.20;;;20.20;41.50;;;;;;4138688;28;20732;-85
2022/09/02 09:54:34;;;;;;;0.77;0.38;;;20.10;41.50;;;;;;4127876;28;20026;-85
2022/09/02 09:56:37;;;;;;;1.58;0.47;;;20.10;42.10;;;;;;4130495;28;20640;-85
2022/09/02 09:58:41;;;;;;;0.68;0.60;;;20.20;42.80;;;;;;4138381;28;20692;-85
2022/09/02 10:00:41;;;;;;;0.98;0.38;;;20.20;42.80;;;;;;4133704;28;20050;-84
2022/09/02 10:02:48;;;;;;;1.00;0.40;;;20.10;41.80;;;;;;4131559;28;20080;-84
2022/09/02 10:04:51;;;;;;;2.80;0.50;;;20.10;41.60;;;;;;4131709;28;20053;-84
2022/09/02 10:06:52;;;;;;;0.93;0.40;;;20.20;41.20;;;;;;4132225;28;20568;-86
2022/09/02 10:09:00;;;;;;;1.55;0.50;;;20.20;41.60;;;;;;4131765;28;20034;-85
2022/09/02 10:11:01;;;;;;;0.60;0.38;;;20.30;42.70;;;;;;4133120;28;20730;-85
2022/09/02 10:13:24;;;;;;;1.63;0.57;;;20.30;43.50;;;;;;4129983;28;20457;-85
2022/09/02 10:15:43;;;;;;;0.50;0.40;;;20.30;43.60;;;;;;4129380;28;20305;-85
2022/09/02 10:18:12;;;;;;;4.10;0.30;;;20.30;44.10;;;;;;4142581;28;21097;-85
2022/09/02 10:20:38;;;;;;;5.93;0.52;;;20.40;43.50;;;;;;4127867;28;20082;-85
2022/09/02 10:23:16;;;;;;;2.47;0.50;;;20.30;43.20;;;;;;4128343;28;20030;-85
2022/09/02 10:25:34;;;;;;;0.70;0.30;;;20.30;42.40;;;;;;4145543;28;20030;-84
2022/09/02 10:27:43;;;;;;;0.77;0.43;;;20.20;42.40;;;;;;4128386;28;20671;-84
2022/09/02 10:30:18;;;;;;;0.65;0.40;;;20.10;42.40;;;;;;4131760;28;20037;-85
2022/09/02 10:32:41;;;;;;;0.85;0.43;;;20.10;42.90;;;;;;4094331;28;20039;-85
2022/09/02 10:34:55;;;;;;;1.20;0.50;;;20.10;42.80;;;;;;4093076;28;20452;-85
2022/09/02 10:37:11;;;;;;;0.43;0.40;;;20.10;42.10;;;;;;4078947;28;20496;-85
2022/09/02 10:39:26;;;;;;;1.25;0.40;;;20.00;42.40;;;;;;4091005;28;20066;-85
2022/09/02 10:41:30;;;;;;;0.80;0.30;;;20.00;42.20;;;;;;4078432;28;20042;-85
2022/09/02 10:43:55;;;;;;;1.80;0.50;;;20.00;42.00;;;;;;4090548;28;20092;-85
2022/09/02 10:46:00;;;;;;;0.60;0.40;;;19.90;41.90;;;;;;4085190;28;21528;-84
2022/09/02 10:48:19;;;;;;;1.20;0.40;;;19.80;41.00;;;;;;4076606;28;20606;-85
2022/09/02 10:50:35;;;;;;;0.32;0.32;;;19.90;42.60;;;;;;4038512;28;20039;-85
2022/09/02 10:52:49;;;;;;;3.38;0.50;;;19.90;44.20;;;;;;4045553;29;20032;-84
2022/09/02 10:55:23;;;;;;;0.55;0.35;;;19.70;42.70;;;;;;4075779;28;20035;-85
2022/09/02 10:57:31;;;;;;;1.10;0.43;;;19.80;43.00;;;;;;4068992;28;20039;-87
2022/09/02 10:59:40;;;;;;;2.28;0.40;;;19.80;44.40;;;;;;4081190;28;20135;-87